createdAt,value
2022-09-28T00:00:22.528Z,0.00
2022-09-28T00:01:22.550Z,0.00
2022-09-28T00:02:22.538Z,0.00
2022-09-28T00:03:22.285Z,0.00
2022-09-28T00:04:22.200Z,0.00
2022-09-28T00:05:22.127Z,0.00
2022-09-28T00:06:22.038Z,0.00
2022-09-28T00:07:21.962Z,0.00
2022-09-28T00:08:21.882Z,0.00
2022-09-28T00:09:21.803Z,0.00
2022-09-28T00:10:21.715Z,0.00
2022-09-28T00:11:21.633Z,0.00
2022-09-28T00:12:21.550Z,0.00
2022-09-28T00:13:21.473Z,0.00
2022-09-28T00:14:21.387Z,0.00
2022-09-28T00:15:21.318Z,0.00
2022-09-28T00:16:21.304Z,0.00
2022-09-28T00:17:21.147Z,0.00
2022-09-28T00:18:21.061Z,0.00
2022-09-28T00:19:20.983Z,0.00
2022-09-28T00:20:20.899Z,0.00
2022-09-28T00:21:20.823Z,0.00
2022-09-28T00:22:20.741Z,0.00
2022-09-28T00:23:20.655Z,0.00
2022-09-28T00:24:24.068Z,0.00
2022-09-28T00:25:20.498Z,0.00
2022-09-28T00:26:20.412Z,0.00
2022-09-28T00:27:20.329Z,0.00
2022-09-28T00:28:20.259Z,0.00
2022-09-28T00:29:20.169Z,0.00
2022-09-28T00:30:20.090Z,0.00
2022-09-28T00:31:20.085Z,0.00
2022-09-28T00:32:19.926Z,0.00
2022-09-28T00:33:19.847Z,0.00
2022-09-28T00:34:19.767Z,0.00
2022-09-28T00:35:19.681Z,0.00
2022-09-28T00:36:19.611Z,0.00
2022-09-28T00:37:19.521Z,0.00
2022-09-28T00:38:19.439Z,0.00
2022-09-28T00:39:19.361Z,0.00
2022-09-28T00:40:19.329Z,0.00
2022-09-28T00:41:19.193Z,0.00
2022-09-28T00:42:19.111Z,0.00
2022-09-28T00:43:19.029Z,0.00
2022-09-28T00:44:18.956Z,0.00
2022-09-28T00:45:18.866Z,0.00
2022-09-28T00:46:18.844Z,0.00
2022-09-28T00:47:18.760Z,0.00
2022-09-28T00:48:18.624Z,0.00
2022-09-28T00:49:18.638Z,0.00
2022-09-28T00:50:18.468Z,0.00
2022-09-28T00:51:18.385Z,0.00
2022-09-28T00:52:18.300Z,0.00
2022-09-28T00:53:18.218Z,0.00
2022-09-28T00:54:18.137Z,0.00
2022-09-28T00:55:18.055Z,0.00
2022-09-28T00:56:17.977Z,0.00
2022-09-28T00:57:17.892Z,0.00
2022-09-28T00:58:17.816Z,0.00
2022-09-28T00:59:17.875Z,0.00
2022-09-28T01:00:17.650Z,0.00
2022-09-28T01:01:17.616Z,0.00
2022-09-28T01:02:17.544Z,0.00
2022-09-28T01:03:17.406Z,0.00
2022-09-28T01:04:17.323Z,0.00
2022-09-28T01:05:17.245Z,0.00
2022-09-28T01:06:17.162Z,0.00
2022-09-28T01:07:17.087Z,0.00
2022-09-28T01:08:16.999Z,0.00
2022-09-28T01:09:17.059Z,0.00
2022-09-28T01:10:16.838Z,0.00
2022-09-28T01:11:16.756Z,0.00
2022-09-28T01:12:16.677Z,0.00
2022-09-28T01:13:16.591Z,0.00
2022-09-28T01:14:16.519Z,0.00
2022-09-28T01:15:16.427Z,0.00
2022-09-28T01:16:16.434Z,0.00
2022-09-28T01:17:16.266Z,0.00
2022-09-28T01:18:16.185Z,0.00
2022-09-28T01:19:16.105Z,0.00
2022-09-28T01:20:16.023Z,0.00
2022-09-28T01:21:15.940Z,0.00
2022-09-28T01:22:15.861Z,0.00
2022-09-28T01:23:15.779Z,0.00
2022-09-28T01:24:15.704Z,0.00
2022-09-28T01:25:15.614Z,0.00
2022-09-28T01:26:15.538Z,0.00
2022-09-28T01:27:15.453Z,0.00
2022-09-28T01:28:15.373Z,0.00
2022-09-28T01:29:15.345Z,0.00
2022-09-28T01:30:15.210Z,0.00
2022-09-28T01:31:15.260Z,0.00
2022-09-28T01:32:15.049Z,0.00
2022-09-28T01:33:14.963Z,0.00
2022-09-28T01:34:14.891Z,0.00
2022-09-28T01:35:14.809Z,0.00
2022-09-28T01:36:14.726Z,0.00
2022-09-28T01:37:14.643Z,0.00
2022-09-28T01:38:14.564Z,0.00
2022-09-28T01:39:14.652Z,0.00
2022-09-28T01:40:14.552Z,0.00
2022-09-28T01:41:14.314Z,0.00
2022-09-28T01:42:14.234Z,0.00
2022-09-28T01:43:14.153Z,0.00
2022-09-28T01:44:14.074Z,0.00
2022-09-28T01:45:13.988Z,0.00
2022-09-28T01:46:13.936Z,0.00
2022-09-28T01:47:13.826Z,0.00
2022-09-28T01:48:13.753Z,0.00
2022-09-28T01:49:13.714Z,0.00
2022-09-28T01:50:13.597Z,0.00
2022-09-28T01:51:13.505Z,0.00
2022-09-28T01:52:13.427Z,0.00
2022-09-28T01:53:13.338Z,0.00
2022-09-28T01:54:13.259Z,0.00
2022-09-28T01:55:13.176Z,0.00
2022-09-28T01:56:13.095Z,0.00
2022-09-28T01:57:13.013Z,0.00
2022-09-28T01:58:12.932Z,0.00
2022-09-28T01:59:12.849Z,0.00
2022-09-28T02:00:12.773Z,0.00
2022-09-28T02:01:12.723Z,0.00
2022-09-28T02:02:12.701Z,0.00
2022-09-28T02:03:12.528Z,0.00
2022-09-28T02:04:12.455Z,0.00
2022-09-28T02:05:12.366Z,0.00
2022-09-28T02:06:12.284Z,0.00
2022-09-28T02:07:12.206Z,0.00
2022-09-28T02:08:12.128Z,0.00
2022-09-28T02:09:12.052Z,0.00
2022-09-28T02:10:11.955Z,0.00
2022-09-28T02:11:11.872Z,0.00
2022-09-28T02:12:11.794Z,0.00
2022-09-28T02:13:11.717Z,0.00
2022-09-28T02:14:11.630Z,0.00
2022-09-28T02:15:11.547Z,0.00
2022-09-28T02:16:11.495Z,0.00
2022-09-28T02:17:11.395Z,0.00
2022-09-28T02:18:11.304Z,0.00
2022-09-28T02:19:11.220Z,0.00
2022-09-28T02:20:11.143Z,0.00
2022-09-28T02:21:11.058Z,0.00
2022-09-28T02:22:10.979Z,0.00
2022-09-28T02:23:10.898Z,0.00
2022-09-28T02:24:10.816Z,0.00
2022-09-28T02:25:10.742Z,0.00
2022-09-28T02:26:10.658Z,0.00
2022-09-28T02:27:10.569Z,0.00
2022-09-28T02:28:10.489Z,0.00
2022-09-28T02:29:10.418Z,0.00
2022-09-28T02:30:10.324Z,0.00
2022-09-28T02:31:10.272Z,0.00
2022-09-28T02:32:10.165Z,0.00
2022-09-28T02:33:10.079Z,0.00
2022-09-28T02:34:10.007Z,0.00
2022-09-28T02:35:09.919Z,0.00
2022-09-28T02:36:09.839Z,0.00
2022-09-28T02:37:09.763Z,0.00
2022-09-28T02:38:09.686Z,0.00
2022-09-28T02:39:09.596Z,0.00
2022-09-28T02:40:09.540Z,0.00
2022-09-28T02:41:09.430Z,0.00
2022-09-28T02:42:09.348Z,0.00
2022-09-28T02:43:09.265Z,0.00
2022-09-28T02:44:09.193Z,0.00
2022-09-28T02:45:09.133Z,0.00
2022-09-28T02:46:09.093Z,0.00
2022-09-28T02:47:08.941Z,0.00
2022-09-28T02:48:08.861Z,0.00
2022-09-28T02:49:22.598Z,0.00
2022-09-28T02:50:08.698Z,0.00
2022-09-28T02:51:08.614Z,0.00
2022-09-28T02:52:08.554Z,0.00
2022-09-28T02:53:08.453Z,0.00
2022-09-28T02:54:08.371Z,0.00
2022-09-28T02:55:08.293Z,0.00
2022-09-28T02:56:08.208Z,0.00
2022-09-28T02:57:08.129Z,0.00
2022-09-28T02:58:08.054Z,0.00
2022-09-28T02:59:07.962Z,0.00
2022-09-28T03:00:07.883Z,0.00
2022-09-28T03:01:07.837Z,0.00
2022-09-28T03:02:07.753Z,0.00
2022-09-28T03:03:07.651Z,0.00
2022-09-28T03:04:07.558Z,0.00
2022-09-28T03:05:07.477Z,0.00
2022-09-28T03:06:07.394Z,0.00
2022-09-28T03:07:07.325Z,0.00
2022-09-28T03:08:07.231Z,0.00
2022-09-28T03:09:07.150Z,0.00
2022-09-28T03:10:07.070Z,0.00
2022-09-28T03:11:06.994Z,0.00
2022-09-28T03:12:06.913Z,0.00
2022-09-28T03:13:06.827Z,0.00
2022-09-28T03:14:06.751Z,0.00
2022-09-28T03:15:06.664Z,0.00
2022-09-28T03:16:06.663Z,0.00
2022-09-28T03:17:06.503Z,0.00
2022-09-28T03:18:06.418Z,0.00
2022-09-28T03:19:06.337Z,0.00
2022-09-28T03:20:06.257Z,0.00
2022-09-28T03:21:06.174Z,0.00
2022-09-28T03:22:06.092Z,0.00
2022-09-28T03:23:23.988Z,0.00
2022-09-28T03:24:05.942Z,0.00
2022-09-28T03:25:05.850Z,0.00
2022-09-28T03:26:05.772Z,0.00
2022-09-28T03:27:05.689Z,0.00
2022-09-28T03:28:05.605Z,0.00
2022-09-28T03:29:05.534Z,0.00
2022-09-28T03:30:05.446Z,0.00
2022-09-28T03:31:05.439Z,0.00
2022-09-28T03:32:05.281Z,0.00
2022-09-28T03:33:05.198Z,0.00
2022-09-28T03:34:05.116Z,0.00
2022-09-28T03:35:05.033Z,0.00
2022-09-28T03:36:04.956Z,0.00
2022-09-28T03:37:04.877Z,0.00
2022-09-28T03:38:04.801Z,0.00
2022-09-28T03:39:04.709Z,0.00
2022-09-28T03:40:04.689Z,0.00
2022-09-28T03:41:04.563Z,0.00
2022-09-28T03:42:04.472Z,0.00
2022-09-28T03:43:04.384Z,0.00
2022-09-28T03:44:04.310Z,0.00
2022-09-28T03:45:04.223Z,0.00
2022-09-28T03:46:04.225Z,0.00
2022-09-28T03:47:04.063Z,0.00
2022-09-28T03:48:03.979Z,0.00
2022-09-28T03:49:03.896Z,0.00
2022-09-28T03:50:03.815Z,0.00
2022-09-28T03:51:03.734Z,0.00
2022-09-28T03:52:03.660Z,0.00
2022-09-28T03:53:03.571Z,0.00
2022-09-28T03:54:03.492Z,0.00
2022-09-28T03:55:03.409Z,0.00
2022-09-28T03:56:03.333Z,0.00
2022-09-28T03:57:03.252Z,0.00
2022-09-28T03:58:03.172Z,0.00
2022-09-28T03:59:03.088Z,0.00
2022-09-28T04:00:03.007Z,0.00
2022-09-28T04:01:03.007Z,0.00
2022-09-28T04:02:02.896Z,0.00
2022-09-28T04:03:02.788Z,0.00
2022-09-28T04:04:02.688Z,0.00
2022-09-28T04:05:02.607Z,0.00
2022-09-28T04:06:02.521Z,0.00
2022-09-28T04:07:02.440Z,0.00
2022-09-28T04:08:02.361Z,0.00
2022-09-28T04:09:02.274Z,0.00
2022-09-28T04:10:02.190Z,0.00
2022-09-28T04:11:02.109Z,0.00
2022-09-28T04:12:04.273Z,0.00
2022-09-28T04:13:01.946Z,0.00
2022-09-28T04:14:01.866Z,0.00
2022-09-28T04:15:01.786Z,0.00
2022-09-28T04:16:01.891Z,0.00
2022-09-28T04:17:01.622Z,0.00
2022-09-28T04:18:01.542Z,0.00
2022-09-28T04:19:01.462Z,0.00
2022-09-28T04:20:01.378Z,0.00
2022-09-28T04:21:01.297Z,0.00
2022-09-28T04:22:01.216Z,0.00
2022-09-28T04:23:01.136Z,0.00
2022-09-28T04:24:01.055Z,0.00
2022-09-28T04:25:00.970Z,0.00
2022-09-28T04:26:00.891Z,0.00
2022-09-28T04:27:00.807Z,0.00
2022-09-28T04:28:00.730Z,0.00
2022-09-28T04:29:05.546Z,0.00
2022-09-28T04:30:00.565Z,0.00
2022-09-28T04:31:00.484Z,0.00
2022-09-28T04:32:00.437Z,0.00
2022-09-28T04:33:00.327Z,0.00
2022-09-28T04:34:00.243Z,0.00
2022-09-28T04:35:00.162Z,0.00
2022-09-28T04:36:00.088Z,0.00
2022-09-28T04:36:59.996Z,0.00
2022-09-28T04:37:59.917Z,0.00
2022-09-28T04:38:59.835Z,0.00
2022-09-28T04:39:59.752Z,0.00
2022-09-28T04:40:59.747Z,0.00
2022-09-28T04:41:59.590Z,0.00
2022-09-28T04:42:59.514Z,0.00
2022-09-28T04:43:59.432Z,0.00
2022-09-28T04:44:59.351Z,0.00
2022-09-28T04:45:59.328Z,0.00
2022-09-28T04:47:02.990Z,0.00
2022-09-28T04:47:59.103Z,0.00
2022-09-28T04:48:59.024Z,0.00
2022-09-28T04:49:58.943Z,0.00
2022-09-28T04:50:58.863Z,0.00
2022-09-28T04:51:58.780Z,0.00
2022-09-28T04:52:58.702Z,0.00
2022-09-28T04:53:58.622Z,0.00
2022-09-28T04:54:58.537Z,0.00
2022-09-28T04:55:58.457Z,0.00
2022-09-28T04:56:58.376Z,0.00
2022-09-28T04:57:58.295Z,0.00
2022-09-28T04:58:58.213Z,0.00
2022-09-28T04:59:58.130Z,0.00
2022-09-28T05:00:58.135Z,0.00
2022-09-28T05:01:58.049Z,0.00
2022-09-28T05:02:57.892Z,0.00
2022-09-28T05:03:57.806Z,0.00
2022-09-28T05:04:57.727Z,0.00
2022-09-28T05:05:57.642Z,0.00
2022-09-28T05:06:57.569Z,4.00
2022-09-28T05:07:57.480Z,0.00
2022-09-28T05:08:57.410Z,0.00
2022-09-28T05:09:57.348Z,4.00
2022-09-28T05:10:57.243Z,4.00
2022-09-28T05:11:57.592Z,4.00
2022-09-28T05:12:57.084Z,0.00
2022-09-28T05:13:56.993Z,4.00
2022-09-28T05:14:56.914Z,4.00
2022-09-28T05:15:59.684Z,8.00
2022-09-28T05:16:56.817Z,8.00
2022-09-28T05:17:56.673Z,4.00
2022-09-28T05:18:56.592Z,4.00
2022-09-28T05:19:56.511Z,4.00
2022-09-28T05:20:56.428Z,4.00
2022-09-28T05:21:56.345Z,4.00
2022-09-28T05:22:56.265Z,4.00
2022-09-28T05:23:56.196Z,4.00
2022-09-28T05:24:56.110Z,8.00
2022-09-28T05:25:56.034Z,4.00
2022-09-28T05:26:55.947Z,8.00
2022-09-28T05:27:55.862Z,8.00
2022-09-28T05:28:55.783Z,12.00
2022-09-28T05:29:55.701Z,16.00
2022-09-28T05:30:55.624Z,16.00
2022-09-28T05:31:55.590Z,16.00
2022-09-28T05:32:55.464Z,16.00
2022-09-28T05:33:55.376Z,12.00
2022-09-28T05:34:55.302Z,12.00
2022-09-28T05:35:59.054Z,16.00
2022-09-28T05:36:55.138Z,16.00
2022-09-28T05:37:55.098Z,24.00
2022-09-28T05:38:54.978Z,28.00
2022-09-28T05:39:54.890Z,32.00
2022-09-28T05:40:54.838Z,36.00
2022-09-28T05:41:54.729Z,40.00
2022-09-28T05:42:54.651Z,44.00
2022-09-28T05:43:54.567Z,44.00
2022-09-28T05:44:54.493Z,44.00
2022-09-28T05:45:55.822Z,44.00
2022-09-28T05:46:54.380Z,32.00
2022-09-28T05:47:54.242Z,28.00
2022-09-28T05:48:54.174Z,28.00
2022-09-28T05:49:54.081Z,28.00
2022-09-28T05:50:54.096Z,28.00
2022-09-28T05:51:53.920Z,32.00
2022-09-28T05:52:53.843Z,32.00
2022-09-28T05:53:53.756Z,36.00
2022-09-28T05:54:53.676Z,36.00
2022-09-28T05:55:53.594Z,36.00
2022-09-28T05:56:53.539Z,32.00
2022-09-28T05:57:53.435Z,32.00
2022-09-28T05:58:53.356Z,28.00
2022-09-28T05:59:53.278Z,28.00
2022-09-28T06:00:53.209Z,36.00
2022-09-28T06:01:53.108Z,36.00
2022-09-28T06:02:53.037Z,32.00
2022-09-28T06:03:53.033Z,36.00
2022-09-28T06:04:52.869Z,32.00
2022-09-28T06:05:52.795Z,32.00
2022-09-28T06:06:52.710Z,32.00
2022-09-28T06:07:52.624Z,28.00
2022-09-28T06:08:52.544Z,32.00
2022-09-28T06:09:52.463Z,28.00
2022-09-28T06:10:52.385Z,32.00
2022-09-28T06:11:52.309Z,36.00
2022-09-28T06:12:52.223Z,40.00
2022-09-28T06:13:52.139Z,44.00
2022-09-28T06:14:52.062Z,48.00
2022-09-28T06:15:51.978Z,52.00
2022-09-28T06:16:52.040Z,64.00
2022-09-28T06:17:51.814Z,76.00
2022-09-28T06:18:51.847Z,88.00
2022-09-28T06:19:51.653Z,104.00
2022-09-28T06:20:51.576Z,112.00
2022-09-28T06:21:51.492Z,116.00
2022-09-28T06:22:51.415Z,112.00
2022-09-28T06:23:51.347Z,96.00
2022-09-28T06:24:51.254Z,88.00
2022-09-28T06:25:51.171Z,84.00
2022-09-28T06:26:51.088Z,88.00
2022-09-28T06:27:51.009Z,92.00
2022-09-28T06:28:50.927Z,100.00
2022-09-28T06:29:50.850Z,108.00
2022-09-28T06:30:50.815Z,120.00
2022-09-28T06:31:50.686Z,136.00
2022-09-28T06:32:50.606Z,156.00
2022-09-28T06:33:50.523Z,168.00
2022-09-28T06:34:55.423Z,176.00
2022-09-28T06:35:50.364Z,184.00
2022-09-28T06:36:50.284Z,184.00
2022-09-28T06:37:50.200Z,180.00
2022-09-28T06:38:50.120Z,172.00
2022-09-28T06:39:50.041Z,164.00
2022-09-28T06:40:49.979Z,164.00
2022-09-28T06:41:49.875Z,156.00
2022-09-28T06:42:49.798Z,136.00
2022-09-28T06:43:49.715Z,116.00
2022-09-28T06:44:49.636Z,104.00
2022-09-28T06:45:49.602Z,96.00
2022-09-28T06:46:49.473Z,100.00
2022-09-28T06:47:49.392Z,108.00
2022-09-28T06:48:49.312Z,116.00
2022-09-28T06:49:49.230Z,124.00
2022-09-28T06:50:49.158Z,132.00
2022-09-28T06:51:49.082Z,144.00
2022-09-28T06:52:48.988Z,156.00
2022-09-28T06:53:48.907Z,168.00
2022-09-28T06:54:48.828Z,172.00
2022-09-28T06:55:48.746Z,176.00
2022-09-28T06:56:48.670Z,172.00
2022-09-28T06:57:48.585Z,164.00
2022-09-28T06:58:48.503Z,156.00
2022-09-28T06:59:48.425Z,144.00
2022-09-28T07:00:48.436Z,144.00
2022-09-28T07:01:48.263Z,148.00
2022-09-28T07:02:48.262Z,148.00
2022-09-28T07:03:51.438Z,144.00
2022-09-28T07:04:48.022Z,140.00
2022-09-28T07:05:47.937Z,136.00
2022-09-28T07:06:47.857Z,140.00
2022-09-28T07:07:47.814Z,148.00
2022-09-28T07:08:57.263Z,164.00
2022-09-28T07:09:51.227Z,176.00
2022-09-28T07:10:47.550Z,184.00
2022-09-28T07:11:47.454Z,188.00
2022-09-28T07:12:47.377Z,192.00
2022-09-28T07:13:50.914Z,200.00
2022-09-28T07:14:48.382Z,200.00
2022-09-28T07:15:47.132Z,188.00
2022-09-28T07:17:09.831Z,172.00
2022-09-28T07:17:58.932Z,160.00
2022-09-28T07:18:46.898Z,152.00
2022-09-28T07:19:46.813Z,152.00
2022-09-28T07:20:53.684Z,152.00
2022-09-28T07:21:56.313Z,168.00
2022-09-28T07:22:46.569Z,192.00
2022-09-28T07:23:53.215Z,212.00
2022-09-28T07:24:46.407Z,220.00
2022-09-28T07:25:46.326Z,216.00
2022-09-28T07:26:46.254Z,208.00
2022-09-28T07:27:46.167Z,204.00
2022-09-28T07:28:46.087Z,200.00
2022-09-28T07:29:46.001Z,204.00
2022-09-28T07:30:45.963Z,204.00
2022-09-28T07:31:45.845Z,208.00
2022-09-28T07:32:45.762Z,204.00
2022-09-28T07:33:45.680Z,200.00
2022-09-28T07:34:45.602Z,192.00
2022-09-28T07:35:45.520Z,188.00
2022-09-28T07:36:45.440Z,184.00
2022-09-28T07:37:45.366Z,192.00
2022-09-28T07:38:45.279Z,208.00
2022-09-28T07:39:45.199Z,224.00
2022-09-28T07:40:48.364Z,228.00
2022-09-28T07:41:45.036Z,220.00
2022-09-28T07:42:44.969Z,216.00
2022-09-28T07:43:44.875Z,208.00
2022-09-28T07:44:44.894Z,212.00
2022-09-28T07:45:44.865Z,224.00
2022-09-28T07:46:44.639Z,244.00
2022-09-28T07:47:44.552Z,284.00
2022-09-28T07:48:44.474Z,312.00
2022-09-28T07:49:44.392Z,320.00
2022-09-28T07:50:44.312Z,316.00
2022-09-28T07:51:44.247Z,300.00
2022-09-28T07:52:44.155Z,296.00
2022-09-28T07:53:44.070Z,288.00
2022-09-28T07:54:43.992Z,320.00
2022-09-28T07:55:43.909Z,340.00
2022-09-28T07:56:43.832Z,316.00
2022-09-28T07:57:43.747Z,304.00
2022-09-28T07:58:43.677Z,304.00
2022-09-28T07:59:43.593Z,304.00
2022-09-28T08:00:43.513Z,304.00
2022-09-28T08:01:43.483Z,308.00
2022-09-28T08:02:43.387Z,328.00
2022-09-28T08:03:43.267Z,360.00
2022-09-28T08:04:43.187Z,396.00
2022-09-28T08:05:43.103Z,468.00
2022-09-28T08:06:43.025Z,1084.00
2022-09-28T08:07:42.943Z,3084.00
2022-09-28T08:08:42.866Z,2716.00
2022-09-28T08:09:42.793Z,2616.00
2022-09-28T08:10:46.540Z,600.00
2022-09-28T08:11:42.623Z,496.00
2022-09-28T08:12:42.543Z,528.00
2022-09-28T08:13:42.461Z,784.00
2022-09-28T08:14:42.405Z,500.00
2022-09-28T08:15:42.301Z,540.00
2022-09-28T08:16:42.226Z,640.00
2022-09-28T08:17:42.140Z,688.00
2022-09-28T08:18:42.072Z,660.00
2022-09-28T08:19:41.979Z,2416.00
2022-09-28T08:20:41.900Z,636.00
2022-09-28T08:21:41.818Z,952.00
2022-09-28T08:22:41.739Z,2788.00
2022-09-28T08:23:41.661Z,2348.00
2022-09-28T08:24:41.602Z,2768.00
2022-09-28T08:25:41.501Z,2716.00
2022-09-28T08:26:41.422Z,2736.00
2022-09-28T08:27:41.341Z,2792.00
2022-09-28T08:28:41.261Z,2884.00
2022-09-28T08:29:41.181Z,1160.00
2022-09-28T08:30:41.185Z,1176.00
2022-09-28T08:31:41.024Z,1092.00
2022-09-28T08:32:40.941Z,1144.00
2022-09-28T08:33:40.859Z,2436.00
2022-09-28T08:34:40.784Z,924.00
2022-09-28T08:35:40.702Z,1028.00
2022-09-28T08:36:40.630Z,1332.00
2022-09-28T08:37:40.541Z,1220.00
2022-09-28T08:38:40.463Z,3204.00
2022-09-28T08:39:40.383Z,2612.00
2022-09-28T08:40:40.332Z,1224.00
2022-09-28T08:41:40.231Z,2476.00
2022-09-28T08:42:40.150Z,2536.00
2022-09-28T08:43:40.066Z,860.00
2022-09-28T08:44:40.018Z,1104.00
2022-09-28T08:45:39.943Z,1708.00
2022-09-28T08:46:39.830Z,1844.00
2022-09-28T08:47:39.750Z,3060.00
2022-09-28T08:48:39.674Z,1900.00
2022-09-28T08:49:39.590Z,636.00
2022-09-28T08:50:39.511Z,840.00
2022-09-28T08:51:39.431Z,596.00
2022-09-28T08:52:39.358Z,472.00
2022-09-28T08:53:39.272Z,416.00
2022-09-28T08:54:39.228Z,1456.00
2022-09-28T08:55:39.115Z,448.00
2022-09-28T08:56:39.037Z,780.00
2022-09-28T08:57:38.957Z,2204.00
2022-09-28T08:58:38.877Z,2108.00
2022-09-28T08:59:38.801Z,2048.00
2022-09-28T09:00:38.723Z,2360.00
2022-09-28T09:01:38.696Z,2392.00
2022-09-28T09:02:38.616Z,2472.00
2022-09-28T09:03:38.483Z,2804.00
2022-09-28T09:04:38.404Z,2820.00
2022-09-28T09:05:38.330Z,2592.00
2022-09-28T09:06:38.245Z,2828.00
2022-09-28T09:07:38.171Z,2696.00
2022-09-28T09:08:38.088Z,2048.00
2022-09-28T09:09:38.029Z,2884.00
2022-09-28T09:10:37.932Z,668.00
2022-09-28T09:11:37.852Z,2636.00
2022-09-28T09:12:37.773Z,1020.00
2022-09-28T09:13:37.699Z,1640.00
2022-09-28T09:14:37.614Z,2536.00
2022-09-28T09:15:37.540Z,2540.00
2022-09-28T09:16:37.521Z,2568.00
2022-09-28T09:17:37.381Z,980.00
2022-09-28T09:18:37.379Z,880.00
2022-09-28T09:19:37.224Z,2936.00
2022-09-28T09:20:37.146Z,2472.00
2022-09-28T09:21:37.066Z,2480.00
2022-09-28T09:22:36.987Z,2540.00
2022-09-28T09:23:36.910Z,952.00
2022-09-28T09:24:36.832Z,2476.00
2022-09-28T09:25:38.605Z,2664.00
2022-09-28T09:26:36.679Z,2604.00
2022-09-28T09:27:36.596Z,2504.00
2022-09-28T09:28:36.519Z,2524.00
2022-09-28T09:29:36.444Z,2628.00
2022-09-28T09:30:36.405Z,2156.00
2022-09-28T09:31:36.285Z,2156.00
2022-09-28T09:32:36.213Z,1164.00
2022-09-28T09:33:36.127Z,876.00
2022-09-28T09:34:36.056Z,992.00
2022-09-28T09:35:35.971Z,812.00
2022-09-28T09:36:35.897Z,832.00
2022-09-28T09:37:35.813Z,1704.00
2022-09-28T09:38:35.736Z,2280.00
2022-09-28T09:39:35.658Z,2104.00
2022-09-28T09:40:35.617Z,1900.00
2022-09-28T09:41:35.511Z,1848.00
2022-09-28T09:42:35.424Z,456.00
2022-09-28T09:43:35.358Z,364.00
2022-09-28T09:44:35.268Z,304.00
2022-09-28T09:45:35.317Z,276.00
2022-09-28T09:46:35.110Z,280.00
2022-09-28T09:47:35.032Z,288.00
2022-09-28T09:48:34.963Z,296.00
2022-09-28T09:49:34.877Z,268.00
2022-09-28T09:50:34.804Z,228.00
2022-09-28T09:51:34.721Z,192.00
2022-09-28T09:53:37.691Z,164.00
2022-09-28T09:54:34.487Z,160.00
2022-09-28T09:55:34.408Z,172.00
2022-09-28T09:56:34.330Z,184.00
2022-09-28T09:57:34.250Z,184.00
2022-09-28T09:58:34.171Z,200.00
2022-09-28T09:59:34.094Z,212.00
2022-09-28T10:00:34.021Z,236.00
2022-09-28T10:01:33.994Z,264.00
2022-09-28T10:02:33.978Z,260.00
2022-09-28T10:03:33.784Z,248.00
2022-09-28T10:04:33.704Z,220.00
2022-09-28T10:05:33.640Z,204.00
2022-09-28T10:06:33.558Z,192.00
2022-09-28T10:07:33.464Z,176.00
2022-09-28T10:08:33.392Z,184.00
2022-09-28T10:09:33.334Z,176.00
2022-09-28T10:10:33.233Z,172.00
2022-09-28T10:11:33.156Z,168.00
2022-09-28T10:12:33.068Z,172.00
2022-09-28T10:13:33.001Z,200.00
2022-09-28T10:14:32.919Z,212.00
2022-09-28T10:15:32.850Z,236.00
2022-09-28T10:16:32.803Z,284.00
2022-09-28T10:17:32.676Z,372.00
2022-09-28T10:18:32.600Z,492.00
2022-09-28T10:19:32.521Z,1180.00
2022-09-28T10:20:32.443Z,520.00
2022-09-28T10:21:32.363Z,480.00
2022-09-28T10:22:32.283Z,428.00
2022-09-28T10:23:32.226Z,388.00
2022-09-28T10:24:32.125Z,356.00
2022-09-28T10:25:32.048Z,360.00
2022-09-28T10:26:31.966Z,396.00
2022-09-28T10:27:31.899Z,480.00
2022-09-28T10:28:31.811Z,548.00
2022-09-28T10:29:31.732Z,612.00
2022-09-28T10:30:31.673Z,568.00
2022-09-28T10:31:31.589Z,488.00
2022-09-28T10:32:31.496Z,440.00
2022-09-28T10:33:31.448Z,436.00
2022-09-28T10:34:31.333Z,448.00
2022-09-28T10:35:31.257Z,380.00
2022-09-28T10:36:31.173Z,356.00
2022-09-28T10:37:31.110Z,340.00
2022-09-28T10:38:31.026Z,360.00
2022-09-28T10:39:30.935Z,400.00
2022-09-28T10:40:30.914Z,424.00
2022-09-28T10:41:30.777Z,404.00
2022-09-28T10:42:30.717Z,436.00
2022-09-28T10:43:30.621Z,456.00
2022-09-28T10:44:30.541Z,428.00
2022-09-28T10:45:30.462Z,404.00
2022-09-28T10:46:30.477Z,368.00
2022-09-28T10:47:30.304Z,368.00
2022-09-28T10:48:30.220Z,384.00
2022-09-28T10:49:30.141Z,420.00
2022-09-28T10:50:30.061Z,484.00
2022-09-28T10:51:29.984Z,560.00
2022-09-28T10:52:29.903Z,632.00
2022-09-28T10:53:29.824Z,796.00
2022-09-28T10:54:29.749Z,1096.00
2022-09-28T10:55:29.668Z,1356.00
2022-09-28T10:56:29.616Z,924.00
2022-09-28T10:57:29.507Z,736.00
2022-09-28T10:58:29.428Z,652.00
2022-09-28T10:59:29.351Z,604.00
2022-09-28T11:00:29.282Z,588.00
2022-09-28T11:01:29.212Z,596.00
2022-09-28T11:02:32.389Z,616.00
2022-09-28T11:03:29.026Z,2484.00
2022-09-28T11:04:28.948Z,2560.00
2022-09-28T11:05:28.868Z,2364.00
2022-09-28T11:06:28.787Z,2524.00
2022-09-28T11:07:28.709Z,1752.00
2022-09-28T11:08:28.628Z,1392.00
2022-09-28T11:09:30.765Z,1872.00
2022-09-28T11:10:28.473Z,2152.00
2022-09-28T11:11:28.393Z,2740.00
2022-09-28T11:12:28.323Z,2132.00
2022-09-28T11:13:28.234Z,2152.00
2022-09-28T11:14:28.155Z,2324.00
2022-09-28T11:15:28.075Z,2408.00
2022-09-28T11:16:28.018Z,2356.00
2022-09-28T11:17:27.923Z,1620.00
2022-09-28T11:18:27.847Z,1864.00
2022-09-28T11:19:27.760Z,2164.00
2022-09-28T11:20:28.607Z,2376.00
2022-09-28T11:21:27.602Z,1440.00
2022-09-28T11:22:27.527Z,1252.00
2022-09-28T11:23:27.446Z,1984.00
2022-09-28T11:24:27.578Z,2020.00
2022-09-28T11:25:27.293Z,1888.00
2022-09-28T11:26:27.244Z,1736.00
2022-09-28T11:27:27.135Z,1160.00
2022-09-28T11:28:27.054Z,1464.00
2022-09-28T11:29:26.976Z,1224.00
2022-09-28T11:30:26.927Z,1704.00
2022-09-28T11:31:26.817Z,1436.00
2022-09-28T11:32:26.740Z,1424.00
2022-09-28T11:33:26.659Z,1688.00
2022-09-28T11:34:41.481Z,1972.00
2022-09-28T11:35:26.504Z,1796.00
2022-09-28T11:36:26.426Z,1248.00
2022-09-28T11:37:26.348Z,1288.00
2022-09-28T11:38:26.271Z,1456.00
2022-09-28T11:39:26.194Z,1568.00
2022-09-28T11:40:26.177Z,1524.00
2022-09-28T11:41:26.040Z,1576.00
2022-09-28T11:42:25.965Z,1776.00
2022-09-28T11:43:25.882Z,1608.00
2022-09-28T11:44:29.434Z,2160.00
2022-09-28T11:45:25.721Z,2304.00
2022-09-28T11:46:25.685Z,2156.00
2022-09-28T11:47:25.566Z,792.00
2022-09-28T11:48:25.487Z,736.00
2022-09-28T11:49:25.410Z,612.00
2022-09-28T11:50:25.401Z,612.00
2022-09-28T11:51:25.253Z,660.00
2022-09-28T11:52:25.179Z,612.00
2022-09-28T11:53:25.098Z,596.00
2022-09-28T11:54:25.032Z,660.00
2022-09-28T11:55:24.942Z,792.00
2022-09-28T11:56:24.866Z,1236.00
2022-09-28T11:57:24.790Z,868.00
2022-09-28T11:58:24.709Z,708.00
2022-09-28T11:59:24.629Z,728.00
2022-09-28T12:00:24.552Z,764.00
2022-09-28T12:01:24.537Z,872.00
2022-09-28T12:02:24.546Z,724.00
2022-09-28T12:03:24.463Z,584.00
2022-09-28T12:04:24.390Z,536.00
2022-09-28T12:05:24.241Z,528.00
2022-09-28T12:06:24.159Z,540.00
2022-09-28T12:07:24.008Z,508.00
2022-09-28T12:08:23.928Z,452.00
2022-09-28T12:09:23.848Z,456.00
2022-09-28T12:10:23.771Z,480.00
2022-09-28T12:11:23.724Z,436.00
2022-09-28T12:12:23.620Z,404.00
2022-09-28T12:13:23.535Z,412.00
2022-09-28T12:14:23.469Z,412.00
2022-09-28T12:15:23.378Z,420.00
2022-09-28T12:16:45.693Z,396.00
2022-09-28T12:17:23.305Z,368.00
2022-09-28T12:18:23.148Z,356.00
2022-09-28T12:19:23.066Z,372.00
2022-09-28T12:20:22.990Z,356.00
2022-09-28T12:21:22.908Z,316.00
2022-09-28T12:22:22.831Z,280.00
2022-09-28T12:23:22.755Z,272.00
2022-09-28T12:24:22.676Z,292.00
2022-09-28T12:25:22.594Z,312.00
2022-09-28T12:26:22.518Z,368.00
2022-09-28T12:27:22.458Z,420.00
2022-09-28T12:28:22.362Z,460.00
2022-09-28T12:29:22.287Z,720.00
2022-09-28T12:30:22.212Z,468.00
2022-09-28T12:31:22.189Z,456.00
2022-09-28T12:32:22.047Z,496.00
2022-09-28T12:33:21.968Z,468.00
2022-09-28T12:34:21.889Z,488.00
2022-09-28T12:35:21.812Z,484.00
2022-09-28T12:36:21.734Z,440.00
2022-09-28T12:37:21.653Z,420.00
2022-09-28T12:38:21.575Z,424.00
2022-09-28T12:39:31.341Z,480.00
2022-09-28T12:40:21.472Z,544.00
2022-09-28T12:41:21.342Z,536.00
2022-09-28T12:42:21.260Z,432.00
2022-09-28T12:43:21.182Z,380.00
2022-09-28T12:44:21.104Z,368.00
2022-09-28T12:45:21.025Z,416.00
2022-09-28T12:46:21.200Z,400.00
2022-09-28T12:47:20.866Z,368.00